sensor_id;sensor_type;location;lat;lon;timestamp;P1;durP1;ratioP1;P2;durP2;ratioP2
59024;SDS011;44806;48.008;13.666;2024-01-10T00:01:00;27.35;;;8.98;;
59024;SDS011;44806;48.008;13.666;2024-01-10T00:03:27;19.98;;;7.68;;
59024;SDS011;44806;48.008;13.666;2024-01-10T00:05:54;19.05;;;7.75;;
59024;SDS011;44806;48.008;13.666;2024-01-10T00:08:21;17.45;;;8.02;;
59024;SDS011;44806;48.008;13.666;2024-01-10T00:10:48;20.83;;;7.88;;
59024;SDS011;44806;48.008;13.666;2024-01-10T00:13:15;19.70;;;7.35;;
59024;SDS011;44806;48.008;13.666;2024-01-10T00:15:43;18.95;;;7.38;;
59024;SDS011;44806;48.008;13.666;2024-01-10T00:18:11;22.65;;;8.38;;
59024;SDS011;44806;48.008;13.666;2024-01-10T00:20:37;19.27;;;8.15;;
59024;SDS011;44806;48.008;13.666;2024-01-10T00:23:04;18.13;;;6.93;;
59024;SDS011;44806;48.008;13.666;2024-01-10T00:25:32;16.27;;;7.43;;
59024;SDS011;44806;48.008;13.666;2024-01-10T00:27:59;26.13;;;7.05;;
59024;SDS011;44806;48.008;13.666;2024-01-10T00:30:26;16.83;;;8.50;;
59024;SDS011;44806;48.008;13.666;2024-01-10T00:32:54;22.27;;;9.68;;
59024;SDS011;44806;48.008;13.666;2024-01-10T00:35:21;27.15;;;9.02;;
59024;SDS011;44806;48.008;13.666;2024-01-10T00:37:48;16.63;;;6.28;;
59024;SDS011;44806;48.008;13.666;2024-01-10T00:40:15;22.38;;;8.02;;
59024;SDS011;44806;48.008;13.666;2024-01-10T00:42:42;16.67;;;6.90;;
59024;SDS011;44806;48.008;13.666;2024-01-10T00:45:09;18.70;;;7.47;;
59024;SDS011;44806;48.008;13.666;2024-01-10T00:47:36;21.85;;;8.55;;
59024;SDS011;44806;48.008;13.666;2024-01-10T00:50:04;21.63;;;7.50;;
59024;SDS011;44806;48.008;13.666;2024-01-10T00:52:32;19.98;;;7.85;;
59024;SDS011;44806;48.008;13.666;2024-01-10T00:54:59;21.23;;;8.07;;
59024;SDS011;44806;48.008;13.666;2024-01-10T00:57:26;17.55;;;7.07;;
59024;SDS011;44806;48.008;13.666;2024-01-10T00:59:53;16.65;;;7.35;;
59024;SDS011;44806;48.008;13.666;2024-01-10T01:02:19;17.17;;;6.90;;
59024;SDS011;44806;48.008;13.666;2024-01-10T01:04:46;17.80;;;7.28;;
59024;SDS011;44806;48.008;13.666;2024-01-10T01:07:14;18.67;;;6.65;;
59024;SDS011;44806;48.008;13.666;2024-01-10T01:09:41;17.27;;;7.00;;
59024;SDS011;44806;48.008;13.666;2024-01-10T01:12:08;18.90;;;6.20;;
59024;SDS011;44806;48.008;13.666;2024-01-10T01:14:35;20.58;;;7.80;;
59024;SDS011;44806;48.008;13.666;2024-01-10T01:17:02;19.85;;;7.78;;
59024;SDS011;44806;48.008;13.666;2024-01-10T01:19:29;19.73;;;6.28;;
59024;SDS011;44806;48.008;13.666;2024-01-10T01:21:56;18.40;;;6.85;;
59024;SDS011;44806;48.008;13.666;2024-01-10T01:24:24;22.48;;;8.75;;
59024;SDS011;44806;48.008;13.666;2024-01-10T01:26:51;15.82;;;6.65;;
59024;SDS011;44806;48.008;13.666;2024-01-10T01:29:18;15.63;;;7.75;;
59024;SDS011;44806;48.008;13.666;2024-01-10T01:31:46;20.35;;;7.65;;
59024;SDS011;44806;48.008;13.666;2024-01-10T01:34:13;18.52;;;6.38;;
59024;SDS011;44806;48.008;13.666;2024-01-10T01:36:40;18.50;;;7.80;;
59024;SDS011;44806;48.008;13.666;2024-01-10T01:39:07;17.85;;;5.78;;
59024;SDS011;44806;48.008;13.666;2024-01-10T01:41:35;22.33;;;7.15;;
59024;SDS011;44806;48.008;13.666;2024-01-10T01:44:02;18.85;;;6.95;;
59024;SDS011;44806;48.008;13.666;2024-01-10T01:46:29;18.50;;;7.53;;
59024;SDS011;44806;48.008;13.666;2024-01-10T01:48:57;21.50;;;7.22;;
59024;SDS011;44806;48.008;13.666;2024-01-10T01:51:25;20.60;;;7.57;;
59024;SDS011;44806;48.008;13.666;2024-01-10T01:53:54;21.05;;;7.68;;
59024;SDS011;44806;48.008;13.666;2024-01-10T01:56:22;18.60;;;6.82;;
59024;SDS011;44806;48.008;13.666;2024-01-10T01:58:51;21.40;;;8.05;;
59024;SDS011;44806;48.008;13.666;2024-01-10T02:01:18;16.33;;;8.25;;
59024;SDS011;44806;48.008;13.666;2024-01-10T02:03:46;19.13;;;5.40;;
59024;SDS011;44806;48.008;13.666;2024-01-10T02:06:13;16.35;;;6.68;;
59024;SDS011;44806;48.008;13.666;2024-01-10T02:08:40;15.25;;;7.05;;
59024;SDS011;44806;48.008;13.666;2024-01-10T02:11:07;15.77;;;6.45;;
59024;SDS011;44806;48.008;13.666;2024-01-10T02:13:34;13.82;;;5.22;;
59024;SDS011;44806;48.008;13.666;2024-01-10T02:16:03;19.90;;;7.65;;
59024;SDS011;44806;48.008;13.666;2024-01-10T02:18:31;18.70;;;8.88;;
59024;SDS011;44806;48.008;13.666;2024-01-10T02:21:00;20.90;;;8.45;;
59024;SDS011;44806;48.008;13.666;2024-01-10T02:23:27;20.70;;;7.93;;
59024;SDS011;44806;48.008;13.666;2024-01-10T02:25:55;20.63;;;8.55;;
59024;SDS011;44806;48.008;13.666;2024-01-10T02:28:22;22.80;;;9.57;;
59024;SDS011;44806;48.008;13.666;2024-01-10T02:30:49;15.50;;;7.28;;
59024;SDS011;44806;48.008;13.666;2024-01-10T02:33:17;18.33;;;7.75;;
59024;SDS011;44806;48.008;13.666;2024-01-10T02:35:44;23.23;;;8.55;;
59024;SDS011;44806;48.008;13.666;2024-01-10T02:38:11;20.88;;;8.05;;
59024;SDS011;44806;48.008;13.666;2024-01-10T02:40:38;17.88;;;6.63;;
59024;SDS011;44806;48.008;13.666;2024-01-10T02:43:06;17.58;;;8.52;;
59024;SDS011;44806;48.008;13.666;2024-01-10T02:45:33;16.38;;;8.02;;
59024;SDS011;44806;48.008;13.666;2024-01-10T02:48:00;19.30;;;6.28;;
59024;SDS011;44806;48.008;13.666;2024-01-10T02:50:27;16.88;;;6.97;;
59024;SDS011;44806;48.008;13.666;2024-01-10T02:52:54;21.25;;;7.45;;
59024;SDS011;44806;48.008;13.666;2024-01-10T02:55:21;18.90;;;8.50;;
59024;SDS011;44806;48.008;13.666;2024-01-10T02:57:48;23.65;;;6.88;;
59024;SDS011;44806;48.008;13.666;2024-01-10T03:00:16;19.05;;;8.05;;
59024;SDS011;44806;48.008;13.666;2024-01-10T03:02:43;19.88;;;6.97;;
59024;SDS011;44806;48.008;13.666;2024-01-10T03:05:10;14.80;;;6.57;;
59024;SDS011;44806;48.008;13.666;2024-01-10T03:07:37;19.38;;;7.93;;
59024;SDS011;44806;48.008;13.666;2024-01-10T03:10:04;23.77;;;8.30;;
59024;SDS011;44806;48.008;13.666;2024-01-10T03:12:33;16.58;;;5.80;;
59024;SDS011;44806;48.008;13.666;2024-01-10T03:15:03;18.20;;;7.38;;
59024;SDS011;44806;48.008;13.666;2024-01-10T03:17:32;15.45;;;7.72;;
59024;SDS011;44806;48.008;13.666;2024-01-10T03:20:01;16.88;;;7.65;;
59024;SDS011;44806;48.008;13.666;2024-01-10T03:22:28;16.50;;;8.45;;
59024;SDS011;44806;48.008;13.666;2024-01-10T03:24:57;18.23;;;6.75;;
59024;SDS011;44806;48.008;13.666;2024-01-10T03:27:24;18.10;;;8.05;;
59024;SDS011;44806;48.008;13.666;2024-01-10T03:29:51;24.17;;;7.93;;
59024;SDS011;44806;48.008;13.666;2024-01-10T03:34:45;17.20;;;6.20;;
59024;SDS011;44806;48.008;13.666;2024-01-10T03:37:11;24.05;;;7.88;;
59024;SDS011;44806;48.008;13.666;2024-01-10T03:39:39;19.35;;;7.45;;
59024;SDS011;44806;48.008;13.666;2024-01-10T03:42:06;22.05;;;8.90;;
59024;SDS011;44806;48.008;13.666;2024-01-10T03:44:34;15.73;;;6.15;;
59024;SDS011;44806;48.008;13.666;2024-01-10T03:47:01;25.38;;;8.45;;
59024;SDS011;44806;48.008;13.666;2024-01-10T03:49:28;23.73;;;8.02;;
59024;SDS011;44806;48.008;13.666;2024-01-10T03:51:56;22.65;;;9.73;;
59024;SDS011;44806;48.008;13.666;2024-01-10T03:54:23;18.17;;;7.25;;
59024;SDS011;44806;48.008;13.666;2024-01-10T03:56:50;17.90;;;7.20;;
59024;SDS011;44806;48.008;13.666;2024-01-10T03:59:17;23.45;;;8.40;;
59024;SDS011;44806;48.008;13.666;2024-01-10T04:01:44;21.60;;;7.00;;
59024;SDS011;44806;48.008;13.666;2024-01-10T04:04:11;13.63;;;6.53;;
59024;SDS011;44806;48.008;13.666;2024-01-10T04:06:38;18.27;;;6.55;;
59024;SDS011;44806;48.008;13.666;2024-01-10T04:09:06;15.80;;;6.22;;
59024;SDS011;44806;48.008;13.666;2024-01-10T04:11:35;20.48;;;8.30;;
59024;SDS011;44806;48.008;13.666;2024-01-10T04:14:02;21.95;;;6.60;;
59024;SDS011;44806;48.008;13.666;2024-01-10T04:16:30;18.00;;;6.85;;
59024;SDS011;44806;48.008;13.666;2024-01-10T04:18:57;24.45;;;7.60;;
59024;SDS011;44806;48.008;13.666;2024-01-10T04:21:24;14.18;;;6.93;;
59024;SDS011;44806;48.008;13.666;2024-01-10T04:23:51;14.63;;;7.10;;
59024;SDS011;44806;48.008;13.666;2024-01-10T04:26:19;19.42;;;6.45;;
59024;SDS011;44806;48.008;13.666;2024-01-10T04:28:46;13.82;;;6.30;;
59024;SDS011;44806;48.008;13.666;2024-01-10T04:31:13;18.58;;;7.13;;
59024;SDS011;44806;48.008;13.666;2024-01-10T04:33:40;17.75;;;7.63;;
59024;SDS011;44806;48.008;13.666;2024-01-10T04:36:07;19.77;;;7.25;;
59024;SDS011;44806;48.008;13.666;2024-01-10T04:38:34;18.67;;;7.35;;
59024;SDS011;44806;48.008;13.666;2024-01-10T04:41:01;23.65;;;8.40;;
59024;SDS011;44806;48.008;13.666;2024-01-10T04:43:29;17.23;;;7.55;;
59024;SDS011;44806;48.008;13.666;2024-01-10T04:45:56;23.88;;;7.85;;
59024;SDS011;44806;48.008;13.666;2024-01-10T04:48:23;15.48;;;7.03;;
59024;SDS011;44806;48.008;13.666;2024-01-10T04:50:50;21.77;;;7.95;;
59024;SDS011;44806;48.008;13.666;2024-01-10T04:53:17;17.83;;;6.50;;
59024;SDS011;44806;48.008;13.666;2024-01-10T04:55:44;20.08;;;8.48;;
59024;SDS011;44806;48.008;13.666;2024-01-10T04:58:11;17.65;;;7.93;;
59024;SDS011;44806;48.008;13.666;2024-01-10T05:00:39;14.20;;;7.68;;
59024;SDS011;44806;48.008;13.666;2024-01-10T05:03:06;24.23;;;9.10;;
59024;SDS011;44806;48.008;13.666;2024-01-10T05:05:33;17.08;;;7.55;;
59024;SDS011;44806;48.008;13.666;2024-01-10T05:08:00;17.35;;;7.75;;
59024;SDS011;44806;48.008;13.666;2024-01-10T05:10:27;19.83;;;8.07;;
59024;SDS011;44806;48.008;13.666;2024-01-10T05:12:54;14.75;;;6.70;;
59024;SDS011;44806;48.008;13.666;2024-01-10T05:15:21;17.60;;;6.65;;
59024;SDS011;44806;48.008;13.666;2024-01-10T05:17:49;21.50;;;7.63;;
59024;SDS011;44806;48.008;13.666;2024-01-10T05:20:16;18.17;;;6.85;;
59024;SDS011;44806;48.008;13.666;2024-01-10T05:22:43;23.85;;;8.35;;
59024;SDS011;44806;48.008;13.666;2024-01-10T05:25:10;22.13;;;7.47;;
59024;SDS011;44806;48.008;13.666;2024-01-10T05:27:37;18.20;;;6.93;;
59024;SDS011;44806;48.008;13.666;2024-01-10T05:30:05;19.63;;;8.10;;
59024;SDS011;44806;48.008;13.666;2024-01-10T05:32:32;18.40;;;7.05;;
59024;SDS011;44806;48.008;13.666;2024-01-10T05:35:01;28.95;;;9.48;;
59024;SDS011;44806;48.008;13.666;2024-01-10T05:37:28;16.70;;;6.57;;
59024;SDS011;44806;48.008;13.666;2024-01-10T05:39:55;16.70;;;7.57;;
59024;SDS011;44806;48.008;13.666;2024-01-10T05:42:21;15.68;;;6.40;;
59024;SDS011;44806;48.008;13.666;2024-01-10T05:44:48;21.90;;;8.05;;
59024;SDS011;44806;48.008;13.666;2024-01-10T05:47:15;21.55;;;9.32;;
59024;SDS011;44806;48.008;13.666;2024-01-10T05:49:42;15.90;;;7.18;;
59024;SDS011;44806;48.008;13.666;2024-01-10T05:52:10;20.23;;;7.53;;
59024;SDS011;44806;48.008;13.666;2024-01-10T05:54:38;16.90;;;7.63;;
59024;SDS011;44806;48.008;13.666;2024-01-10T05:57:05;16.20;;;7.40;;
59024;SDS011;44806;48.008;13.666;2024-01-10T05:59:32;27.48;;;9.48;;
59024;SDS011;44806;48.008;13.666;2024-01-10T06:02:00;17.58;;;8.32;;
59024;SDS011;44806;48.008;13.666;2024-01-10T06:04:28;20.15;;;7.43;;
59024;SDS011;44806;48.008;13.666;2024-01-10T06:06:56;25.67;;;9.38;;
59024;SDS011;44806;48.008;13.666;2024-01-10T06:09:25;18.88;;;8.98;;
59024;SDS011;44806;48.008;13.666;2024-01-10T06:11:52;21.23;;;8.25;;
59024;SDS011;44806;48.008;13.666;2024-01-10T06:14:19;20.65;;;7.78;;
59024;SDS011;44806;48.008;13.666;2024-01-10T06:16:46;20.92;;;8.50;;
59024;SDS011;44806;48.008;13.666;2024-01-10T06:19:13;20.73;;;9.88;;
59024;SDS011;44806;48.008;13.666;2024-01-10T06:21:40;17.80;;;7.72;;
59024;SDS011;44806;48.008;13.666;2024-01-10T06:24:07;17.40;;;8.00;;
59024;SDS011;44806;48.008;13.666;2024-01-10T06:26:35;22.02;;;8.88;;
59024;SDS011;44806;48.008;13.666;2024-01-10T06:29:02;20.50;;;8.68;;
59024;SDS011;44806;48.008;13.666;2024-01-10T06:31:29;14.18;;;6.53;;
59024;SDS011;44806;48.008;13.666;2024-01-10T06:33:56;22.25;;;8.35;;
59024;SDS011;44806;48.008;13.666;2024-01-10T06:36:23;20.73;;;8.50;;
59024;SDS011;44806;48.008;13.666;2024-01-10T06:38:50;20.30;;;7.35;;
59024;SDS011;44806;48.008;13.666;2024-01-10T06:41:17;20.77;;;8.63;;
59024;SDS011;44806;48.008;13.666;2024-01-10T06:43:50;21.35;;;9.50;;
59024;SDS011;44806;48.008;13.666;2024-01-10T06:46:17;15.02;;;7.20;;
59024;SDS011;44806;48.008;13.666;2024-01-10T06:48:44;19.95;;;8.35;;
59024;SDS011;44806;48.008;13.666;2024-01-10T06:51:12;17.25;;;7.97;;
59024;SDS011;44806;48.008;13.666;2024-01-10T06:53:39;17.38;;;7.95;;
59024;SDS011;44806;48.008;13.666;2024-01-10T06:56:07;18.05;;;7.50;;
59024;SDS011;44806;48.008;13.666;2024-01-10T06:58:34;19.52;;;7.78;;
59024;SDS011;44806;48.008;13.666;2024-01-10T07:01:03;20.35;;;7.90;;
59024;SDS011;44806;48.008;13.666;2024-01-10T07:03:30;17.77;;;7.22;;
59024;SDS011;44806;48.008;13.666;2024-01-10T07:05:59;18.75;;;9.27;;
59024;SDS011;44806;48.008;13.666;2024-01-10T07:08:26;25.45;;;8.95;;
59024;SDS011;44806;48.008;13.666;2024-01-10T07:10:55;18.88;;;7.30;;
59024;SDS011;44806;48.008;13.666;2024-01-10T07:13:22;17.17;;;7.75;;
59024;SDS011;44806;48.008;13.666;2024-01-10T07:15:49;31.05;;;6.88;;
59024;SDS011;44806;48.008;13.666;2024-01-10T07:18:19;16.92;;;8.32;;
59024;SDS011;44806;48.008;13.666;2024-01-10T07:20:45;16.13;;;7.65;;
59024;SDS011;44806;48.008;13.666;2024-01-10T07:23:12;15.18;;;7.53;;
59024;SDS011;44806;48.008;13.666;2024-01-10T07:25:40;20.90;;;9.50;;
59024;SDS011;44806;48.008;13.666;2024-01-10T07:28:09;19.48;;;7.53;;
59024;SDS011;44806;48.008;13.666;2024-01-10T07:30:39;19.75;;;8.68;;
59024;SDS011;44806;48.008;13.666;2024-01-10T07:33:06;16.98;;;7.78;;
59024;SDS011;44806;48.008;13.666;2024-01-10T07:35:34;26.77;;;9.73;;
59024;SDS011;44806;48.008;13.666;2024-01-10T07:38:01;23.17;;;8.18;;
59024;SDS011;44806;48.008;13.666;2024-01-10T07:40:28;59.53;;;10.65;;
59024;SDS011;44806;48.008;13.666;2024-01-10T07:42:55;21.00;;;8.05;;
59024;SDS011;44806;48.008;13.666;2024-01-10T07:45:21;33.92;;;10.38;;
59024;SDS011;44806;48.008;13.666;2024-01-10T07:47:48;33.95;;;10.77;;
59024;SDS011;44806;48.008;13.666;2024-01-10T07:50:15;19.05;;;7.30;;
59024;SDS011;44806;48.008;13.666;2024-01-10T07:52:44;21.30;;;9.40;;
59024;SDS011;44806;48.008;13.666;2024-01-10T07:55:11;15.18;;;5.80;;
59024;SDS011;44806;48.008;13.666;2024-01-10T07:57:38;21.88;;;8.40;;
59024;SDS011;44806;48.008;13.666;2024-01-10T08:00:07;18.88;;;8.68;;
59024;SDS011;44806;48.008;13.666;2024-01-10T08:02:35;20.55;;;9.75;;
59024;SDS011;44806;48.008;13.666;2024-01-10T08:05:02;23.02;;;10.27;;
59024;SDS011;44806;48.008;13.666;2024-01-10T08:07:33;20.75;;;8.90;;
59024;SDS011;44806;48.008;13.666;2024-01-10T08:10:03;25.83;;;8.18;;
59024;SDS011;44806;48.008;13.666;2024-01-10T08:12:30;22.67;;;7.95;;
59024;SDS011;44806;48.008;13.666;2024-01-10T08:14:57;29.77;;;11.30;;
59024;SDS011;44806;48.008;13.666;2024-01-10T08:17:24;33.55;;;13.23;;
59024;SDS011;44806;48.008;13.666;2024-01-10T08:19:51;22.40;;;7.88;;
59024;SDS011;44806;48.008;13.666;2024-01-10T08:22:18;25.00;;;10.80;;
59024;SDS011;44806;48.008;13.666;2024-01-10T08:24:46;26.42;;;10.70;;
59024;SDS011;44806;48.008;13.666;2024-01-10T08:27:14;43.17;;;11.20;;
59024;SDS011;44806;48.008;13.666;2024-01-10T08:29:42;26.33;;;10.35;;
59024;SDS011;44806;48.008;13.666;2024-01-10T08:32:09;18.52;;;8.02;;
59024;SDS011;44806;48.008;13.666;2024-01-10T08:34:36;33.22;;;18.23;;
59024;SDS011;44806;48.008;13.666;2024-01-10T08:37:03;30.25;;;10.63;;
59024;SDS011;44806;48.008;13.666;2024-01-10T08:39:30;14.50;;;6.60;;
59024;SDS011;44806;48.008;13.666;2024-01-10T08:41:57;22.52;;;10.32;;
59024;SDS011;44806;48.008;13.666;2024-01-10T08:44:25;20.48;;;9.38;;
59024;SDS011;44806;48.008;13.666;2024-01-10T08:46:52;31.58;;;10.95;;
59024;SDS011;44806;48.008;13.666;2024-01-10T08:49:19;26.50;;;9.63;;
59024;SDS011;44806;48.008;13.666;2024-01-10T08:51:46;26.35;;;12.20;;
59024;SDS011;44806;48.008;13.666;2024-01-10T08:54:13;34.22;;;13.70;;
59024;SDS011;44806;48.008;13.666;2024-01-10T08:56:44;41.10;;;14.63;;
59024;SDS011;44806;48.008;13.666;2024-01-10T08:59:11;24.80;;;10.93;;
59024;SDS011;44806;48.008;13.666;2024-01-10T09:01:41;27.10;;;11.40;;
59024;SDS011;44806;48.008;13.666;2024-01-10T09:04:08;39.00;;;12.05;;
59024;SDS011;44806;48.008;13.666;2024-01-10T09:06:35;22.65;;;8.95;;
59024;SDS011;44806;48.008;13.666;2024-01-10T09:09:02;22.70;;;10.27;;
59024;SDS011;44806;48.008;13.666;2024-01-10T09:11:29;22.55;;;9.40;;
59024;SDS011;44806;48.008;13.666;2024-01-10T09:13:56;21.40;;;9.02;;
59024;SDS011;44806;48.008;13.666;2024-01-10T09:16:24;24.33;;;11.50;;
59024;SDS011;44806;48.008;13.666;2024-01-10T09:18:53;23.55;;;8.90;;
59024;SDS011;44806;48.008;13.666;2024-01-10T09:21:22;23.80;;;9.43;;
59024;SDS011;44806;48.008;13.666;2024-01-10T09:23:49;20.80;;;9.27;;
59024;SDS011;44806;48.008;13.666;2024-01-10T09:26:16;37.42;;;15.75;;
59024;SDS011;44806;48.008;13.666;2024-01-10T09:28:44;32.25;;;12.95;;
59024;SDS011;44806;48.008;13.666;2024-01-10T09:31:10;28.20;;;12.88;;
59024;SDS011;44806;48.008;13.666;2024-01-10T09:33:37;35.85;;;13.77;;
59024;SDS011;44806;48.008;13.666;2024-01-10T09:36:06;28.98;;;12.48;;
59024;SDS011;44806;48.008;13.666;2024-01-10T09:38:34;15.88;;;7.55;;
59024;SDS011;44806;48.008;13.666;2024-01-10T09:41:02;24.42;;;9.43;;
59024;SDS011;44806;48.008;13.666;2024-01-10T09:43:30;25.50;;;10.90;;
59024;SDS011;44806;48.008;13.666;2024-01-10T09:45:58;30.70;;;13.07;;
59024;SDS011;44806;48.008;13.666;2024-01-10T09:48:27;28.83;;;9.23;;
59024;SDS011;44806;48.008;13.666;2024-01-10T09:50:55;24.17;;;12.25;;
59024;SDS011;44806;48.008;13.666;2024-01-10T09:53:24;32.35;;;12.23;;
59024;SDS011;44806;48.008;13.666;2024-01-10T09:55:52;33.00;;;13.25;;
59024;SDS011;44806;48.008;13.666;2024-01-10T09:58:22;31.75;;;13.88;;
59024;SDS011;44806;48.008;13.666;2024-01-10T10:00:51;22.45;;;8.75;;
59024;SDS011;44806;48.008;13.666;2024-01-10T10:03:18;25.67;;;13.05;;
59024;SDS011;44806;48.008;13.666;2024-01-10T10:05:45;29.55;;;13.43;;
59024;SDS011;44806;48.008;13.666;2024-01-10T10:08:13;36.50;;;14.43;;
59024;SDS011;44806;48.008;13.666;2024-01-10T10:10:49;18.67;;;9.40;;
59024;SDS011;44806;48.008;13.666;2024-01-10T10:13:26;34.08;;;12.98;;
59024;SDS011;44806;48.008;13.666;2024-01-10T10:15:57;17.05;;;7.90;;
59024;SDS011;44806;48.008;13.666;2024-01-10T10:18:25;30.42;;;14.25;;
59024;SDS011;44806;48.008;13.666;2024-01-10T10:21:09;26.42;;;13.50;;
59024;SDS011;44806;48.008;13.666;2024-01-10T10:23:37;26.27;;;11.63;;
59024;SDS011;44806;48.008;13.666;2024-01-10T10:26:13;31.80;;;15.30;;
59024;SDS011;44806;48.008;13.666;2024-01-10T10:28:45;34.42;;;14.15;;
59024;SDS011;44806;48.008;13.666;2024-01-10T10:31:12;32.30;;;13.82;;
59024;SDS011;44806;48.008;13.666;2024-01-10T10:33:40;36.80;;;14.27;;
59024;SDS011;44806;48.008;13.666;2024-01-10T10:36:07;30.58;;;12.07;;
59024;SDS011;44806;48.008;13.666;2024-01-10T10:38:34;42.45;;;15.60;;
59024;SDS011;44806;48.008;13.666;2024-01-10T10:41:02;27.85;;;13.18;;
59024;SDS011;44806;48.008;13.666;2024-01-10T10:43:33;34.05;;;15.98;;
59024;SDS011;44806;48.008;13.666;2024-01-10T10:46:02;31.48;;;12.52;;
59024;SDS011;44806;48.008;13.666;2024-01-10T10:48:32;31.42;;;12.02;;
59024;SDS011;44806;48.008;13.666;2024-01-10T10:51:03;28.83;;;13.57;;
59024;SDS011;44806;48.008;13.666;2024-01-10T10:53:33;32.63;;;15.43;;
59024;SDS011;44806;48.008;13.666;2024-01-10T10:56:02;30.45;;;13.30;;
59024;SDS011;44806;48.008;13.666;2024-01-10T10:58:33;36.10;;;14.02;;
59024;SDS011;44806;48.008;13.666;2024-01-10T11:01:02;30.65;;;12.80;;
59024;SDS011;44806;48.008;13.666;2024-01-10T11:03:32;27.75;;;11.20;;
59024;SDS011;44806;48.008;13.666;2024-01-10T11:06:01;35.70;;;15.15;;
59024;SDS011;44806;48.008;13.666;2024-01-10T11:08:30;26.55;;;13.32;;
59024;SDS011;44806;48.008;13.666;2024-01-10T11:11:02;32.90;;;14.52;;
59024;SDS011;44806;48.008;13.666;2024-01-10T11:13:37;32.88;;;13.93;;
59024;SDS011;44806;48.008;13.666;2024-01-10T11:16:25;37.10;;;13.90;;
59024;SDS011;44806;48.008;13.666;2024-01-10T11:19:14;31.58;;;15.45;;
59024;SDS011;44806;48.008;13.666;2024-01-10T11:22:05;33.50;;;14.80;;
59024;SDS011;44806;48.008;13.666;2024-01-10T11:24:40;36.78;;;14.35;;
59024;SDS011;44806;48.008;13.666;2024-01-10T11:27:10;33.35;;;13.77;;
59024;SDS011;44806;48.008;13.666;2024-01-10T11:29:39;34.53;;;13.88;;
59024;SDS011;44806;48.008;13.666;2024-01-10T11:32:07;31.65;;;14.30;;
59024;SDS011;44806;48.008;13.666;2024-01-10T11:34:48;28.83;;;12.60;;
59024;SDS011;44806;48.008;13.666;2024-01-10T11:37:16;37.42;;;16.80;;
59024;SDS011;44806;48.008;13.666;2024-01-10T11:39:43;30.05;;;13.98;;
59024;SDS011;44806;48.008;13.666;2024-01-10T11:42:11;33.17;;;14.10;;
59024;SDS011;44806;48.008;13.666;2024-01-10T11:44:50;32.28;;;13.95;;
59024;SDS011;44806;48.008;13.666;2024-01-10T11:47:18;35.92;;;13.88;;
59024;SDS011;44806;48.008;13.666;2024-01-10T11:49:56;32.63;;;14.60;;
59024;SDS011;44806;48.008;13.666;2024-01-10T11:52:23;27.20;;;11.63;;
59024;SDS011;44806;48.008;13.666;2024-01-10T11:54:58;34.40;;;14.88;;
59024;SDS011;44806;48.008;13.666;2024-01-10T11:57:25;36.10;;;14.82;;
59024;SDS011;44806;48.008;13.666;2024-01-10T11:59:55;31.67;;;14.05;;
59024;SDS011;44806;48.008;13.666;2024-01-10T12:02:25;36.03;;;14.57;;
59024;SDS011;44806;48.008;13.666;2024-01-10T12:04:53;27.65;;;13.27;;
59024;SDS011;44806;48.008;13.666;2024-01-10T12:07:20;33.75;;;15.35;;
59024;SDS011;44806;48.008;13.666;2024-01-10T12:09:48;37.60;;;16.77;;
59024;SDS011;44806;48.008;13.666;2024-01-10T12:12:16;35.30;;;16.23;;
59024;SDS011;44806;48.008;13.666;2024-01-10T12:14:43;34.35;;;14.38;;
59024;SDS011;44806;48.008;13.666;2024-01-10T12:17:12;41.20;;;15.65;;
59024;SDS011;44806;48.008;13.666;2024-01-10T12:19:39;42.50;;;14.40;;
59024;SDS011;44806;48.008;13.666;2024-01-10T12:22:09;32.65;;;14.63;;
59024;SDS011;44806;48.008;13.666;2024-01-10T12:24:42;33.78;;;15.20;;
59024;SDS011;44806;48.008;13.666;2024-01-10T12:27:11;36.70;;;14.27;;
59024;SDS011;44806;48.008;13.666;2024-01-10T12:29:38;37.80;;;15.85;;
59024;SDS011;44806;48.008;13.666;2024-01-10T12:32:05;30.42;;;13.68;;
59024;SDS011;44806;48.008;13.666;2024-01-10T12:34:38;32.25;;;14.73;;
59024;SDS011;44806;48.008;13.666;2024-01-10T12:37:05;30.85;;;14.55;;
59024;SDS011;44806;48.008;13.666;2024-01-10T12:39:33;32.80;;;15.70;;
59024;SDS011;44806;48.008;13.666;2024-01-10T12:42:00;30.83;;;14.95;;
59024;SDS011;44806;48.008;13.666;2024-01-10T12:44:28;38.97;;;16.00;;
59024;SDS011;44806;48.008;13.666;2024-01-10T12:46:56;39.13;;;16.42;;
59024;SDS011;44806;48.008;13.666;2024-01-10T12:49:25;38.88;;;15.68;;
59024;SDS011;44806;48.008;13.666;2024-01-10T12:51:53;26.58;;;11.98;;
59024;SDS011;44806;48.008;13.666;2024-01-10T12:54:20;37.45;;;14.85;;
59024;SDS011;44806;48.008;13.666;2024-01-10T12:56:47;34.28;;;15.18;;
59024;SDS011;44806;48.008;13.666;2024-01-10T12:59:14;31.95;;;14.95;;
59024;SDS011;44806;48.008;13.666;2024-01-10T13:01:41;27.38;;;12.15;;
59024;SDS011;44806;48.008;13.666;2024-01-10T13:04:08;32.35;;;16.02;;
59024;SDS011;44806;48.008;13.666;2024-01-10T13:06:37;33.42;;;15.25;;
59024;SDS011;44806;48.008;13.666;2024-01-10T13:09:06;21.98;;;10.48;;
59024;SDS011;44806;48.008;13.666;2024-01-10T13:11:34;34.85;;;16.55;;
59024;SDS011;44806;48.008;13.666;2024-01-10T13:14:01;32.67;;;13.77;;
59024;SDS011;44806;48.008;13.666;2024-01-10T13:16:28;32.00;;;14.80;;
59024;SDS011;44806;48.008;13.666;2024-01-10T13:18:55;38.53;;;16.23;;
59024;SDS011;44806;48.008;13.666;2024-01-10T13:21:24;35.03;;;14.45;;
59024;SDS011;44806;48.008;13.666;2024-01-10T13:23:51;31.30;;;14.98;;
59024;SDS011;44806;48.008;13.666;2024-01-10T13:26:19;31.67;;;15.40;;
59024;SDS011;44806;48.008;13.666;2024-01-10T13:28:46;29.85;;;13.65;;
59024;SDS011;44806;48.008;13.666;2024-01-10T13:31:14;34.03;;;16.55;;
59024;SDS011;44806;48.008;13.666;2024-01-10T13:33:41;39.70;;;16.73;;
59024;SDS011;44806;48.008;13.666;2024-01-10T13:36:08;35.78;;;16.20;;
59024;SDS011;44806;48.008;13.666;2024-01-10T13:38:35;28.88;;;14.07;;
59024;SDS011;44806;48.008;13.666;2024-01-10T13:41:02;35.72;;;14.00;;
59024;SDS011;44806;48.008;13.666;2024-01-10T13:43:31;34.90;;;13.95;;
59024;SDS011;44806;48.008;13.666;2024-01-10T13:45:58;39.65;;;17.27;;
59024;SDS011;44806;48.008;13.666;2024-01-10T13:48:26;39.08;;;17.27;;
59024;SDS011;44806;48.008;13.666;2024-01-10T13:50:53;33.08;;;14.80;;
59024;SDS011;44806;48.008;13.666;2024-01-10T13:53:20;31.85;;;14.35;;
59024;SDS011;44806;48.008;13.666;2024-01-10T13:55:47;38.03;;;15.57;;
59024;SDS011;44806;48.008;13.666;2024-01-10T13:58:15;35.78;;;15.50;;
59024;SDS011;44806;48.008;13.666;2024-01-10T14:00:45;38.85;;;15.70;;
59024;SDS011;44806;48.008;13.666;2024-01-10T14:03:12;36.13;;;15.23;;
59024;SDS011;44806;48.008;13.666;2024-01-10T14:05:39;39.33;;;15.95;;
59024;SDS011;44806;48.008;13.666;2024-01-10T14:08:06;37.67;;;16.67;;
59024;SDS011;44806;48.008;13.666;2024-01-10T14:10:33;35.78;;;15.02;;
59024;SDS011;44806;48.008;13.666;2024-01-10T14:13:00;32.75;;;13.80;;
59024;SDS011;44806;48.008;13.666;2024-01-10T14:15:28;36.38;;;15.63;;
59024;SDS011;44806;48.008;13.666;2024-01-10T14:17:56;34.40;;;15.25;;
59024;SDS011;44806;48.008;13.666;2024-01-10T14:20:23;39.60;;;16.90;;
59024;SDS011;44806;48.008;13.666;2024-01-10T14:22:50;43.10;;;18.90;;